Argyle, Illinois
Current Conditions -  °F | °C
As of 8:54 AM on Wednesday 22 Oct 2014 (Local Time) from KRFD Reporting Station
Clear Clear  
Wind Chill:   Ceiling: Unl
Heat Index:   Visibility: 9mi
Dew Point:   Wind: 0mph
Humidity: 86%   Direction: NA
Pressure: 30.38"   Gusts: NA
Location:  42.3911°N, 88.9094°W
Report Text: KRFD 221354Z 00000KT 9SM CLR 04/02 A3038 RMK AO2 SLP293 T00390017
Loading
Personal Weather Stations






























Interactive Weather Map
Tropical Storm Tracking
New forecast layout! Learn more

10-Day Weather Forecast

Advertisements
Track Severe Weather on mobile